KMCW

Mason City Municipal Airport

Mason City, Iowa, USA
METAR KMCW 150253Z AUTO 00000KT 7SM CLR 22/22 A2995 RMK AO2 SLP128 T02220222 55000
Observed Flight Rules
Aug-15 @ 02:53 UTC (42 minutes ago) Visual Flight Rules
Visibility Clouds
7 miles
  • Clear skies
Temperatures Readings
Current 22°C / 72°F
Dewpoint 22°C / 72°F
Humidity 100%
Altimeter 29.95" Hg
Pressure 1012.8 hPa
Elevation 369
METAR KMCW 150253Z AUTO 00000KT 7SM CLR 22/22 A2995 RMK AO2 SLP128 T02220222 55000
Observed Flight Rules
Aug-15 @ 02:53 UTC
(42 minutes ago)
VFR
Clouds
  • Clear skies
Temperature Dewpoint
22°C / 72°F 22°C / 72°F
Humidity Altimeter Pressure
100% 29.95" Hg 1012.8 hPa